Time;durP1;ratioP1;P1;durP2;ratioP2;P2;SDS_P1;SDS_P2;PMS_P1;PMS_P2;Temp;Humidity;BMP_temperature;BMP_pressure;BME280_temperature;BME280_humidity;BME280_pressure;Samples;Min_cycle;Max_cycle;Signal;HPM_P1;HPM_P2
2022/05/13 00:01:04;;;;;;;8.80;5.60;;;;;;;16.79;nan;95371.06;5006937;28;20347;-82
2022/05/13 00:03:32;;;;;;;6.43;5.57;;;;;;;16.45;nan;95366.00;5007929;28;20188;-81
2022/05/13 00:06:01;;;;;;;6.47;5.93;;;;;;;16.51;nan;95376.78;5007976;28;20216;-82
2022/05/13 00:08:28;;;;;;;6.47;5.88;;;;;;;16.19;nan;95346.81;5006643;28;20595;-82
2022/05/13 00:10:55;;;;;;;6.72;5.85;;;;;;;15.78;nan;95369.41;5007531;28;20590;-82
2022/05/13 00:13:22;;;;;;;15.20;5.72;;;;;;;15.56;nan;95369.59;5008349;28;20204;-84
2022/05/13 00:15:50;;;;;;;7.47;6.28;;;;;;;15.51;nan;95374.09;5008584;28;20211;-82
2022/05/13 00:18:18;;;;;;;6.45;6.00;;;;;;;15.53;nan;95370.56;5008165;28;20610;-83
2022/05/13 00:20:45;;;;;;;7.05;6.47;;;;;;;15.37;nan;95368.78;5006352;28;20207;-83
2022/05/13 00:23:14;;;;;;;7.28;5.72;;;;;;;15.78;nan;95369.41;5007545;28;20214;-84
2022/05/13 00:25:41;;;;;;;9.40;6.13;;;;;;;16.01;nan;95356.28;5008236;28;20223;-84
2022/05/13 00:28:10;;;;;;;6.32;5.82;;;;;;;16.14;nan;95362.41;5005600;28;20715;-83
2022/05/13 00:30:39;;;;;;;9.68;6.18;;;;;;;16.01;nan;95371.66;5006092;28;20196;-82
2022/05/13 00:33:06;;;;;;;7.28;6.38;;;;;;;16.14;nan;95375.25;5005570;28;20199;-82
2022/05/13 00:35:34;;;;;;;6.88;5.93;;;;;;;16.20;nan;95362.13;5005891;28;20210;-80
2022/05/13 00:38:01;;;;;;;6.25;5.70;;;;;;;16.19;nan;95370.72;5002130;28;21422;-82
2022/05/13 00:40:29;;;;;;;6.40;5.72;;;;;;;15.94;nan;95365.16;5002388;28;20204;-81
2022/05/13 00:43:00;;;;;;;6.88;6.28;;;;;;;15.89;nan;95367.94;5003739;28;20203;-81
2022/05/13 00:45:28;;;;;;;6.38;5.88;;;;;;;16.01;nan;95361.41;5005042;28;20205;-81
2022/05/13 00:47:55;;;;;;;6.50;5.88;;;;;;;15.91;nan;95375.56;4999229;28;20568;-81
2022/05/13 00:50:22;;;;;;;6.65;6.13;;;;;;;15.58;nan;95357.56;5003014;28;20230;-81
2022/05/13 00:52:51;;;;;;;9.35;6.68;;;;;;;15.37;nan;95373.88;5004228;28;20212;-82
2022/05/13 00:55:25;;;;;;;6.47;5.97;;;;;;;15.22;nan;95371.16;5003564;28;20265;-80
2022/05/13 00:57:54;;;;;;;9.15;7.10;;;;;;;15.57;nan;95382.34;5004198;28;20269;-83
2022/05/13 01:00:22;;;;;;;6.28;5.72;;;;;;;15.61;nan;95378.72;5003466;28;20671;-81
2022/05/13 01:02:49;;;;;;;7.13;6.43;;;;;;;15.30;nan;95365.69;5009694;28;20226;-82
2022/05/13 01:05:19;;;;;;;6.68;6.13;;;;;;;15.21;nan;95376.34;5004468;28;20207;-80
2022/05/13 01:07:46;;;;;;;8.10;6.22;;;;;;;15.18;nan;95381.63;5005846;28;20219;-79
2022/05/13 01:10:17;;;;;;;7.95;6.60;;;;;;;15.47;nan;95375.97;5005110;28;20595;-79
2022/05/13 01:12:50;;;;;;;6.80;6.30;;;;;;;15.23;nan;95367.69;5006810;28;20200;-80
2022/05/13 01:15:22;;;;;;;8.10;6.70;;;;;;;15.14;nan;95373.25;5006983;28;20200;-80
2022/05/13 01:18:06;;;;;;;7.80;6.93;;;;;;;14.96;nan;95377.50;5005741;28;20237;-80
2022/05/13 01:20:36;;;;;;;9.38;6.55;;;;;;;14.91;nan;95373.47;5014722;28;20215;-82
2022/05/13 01:23:06;;;;;;;7.55;6.47;;;;;;;15.12;nan;95375.03;5018001;28;21247;-80
2022/05/13 01:25:38;;;;;;;6.57;5.68;;;;;;;15.22;nan;95353.25;5007320;28;20207;-80
2022/05/13 01:28:10;;;;;;;6.95;6.07;;;;;;;15.42;nan;95372.78;5005866;28;20707;-81
2022/05/13 01:30:41;;;;;;;7.35;6.68;;;;;;;15.07;nan;95353.13;5006867;28;20226;-81
2022/05/13 01:33:08;;;;;;;8.70;7.10;;;;;;;14.94;nan;95370.78;5007693;28;20216;-81
2022/05/13 01:35:39;;;;;;;8.65;7.75;;;;;;;15.21;nan;95366.94;5006938;28;20670;-80
2022/05/13 01:38:08;;;;;;;8.77;7.88;;;;;;;15.01;nan;95379.00;5007145;28;20208;-80
2022/05/13 01:40:35;;;;;;;8.07;7.28;;;;;;;14.80;nan;95368.03;5004956;28;20207;-80
2022/05/13 01:43:02;;;;;;;7.40;6.80;;;;;;;15.00;nan;95354.31;5007442;28;20207;-78
2022/05/13 01:45:29;;;;;;;7.97;7.10;;;;;;;15.08;nan;95354.81;5005635;28;20208;-80
2022/05/13 01:47:56;;;;;;;11.35;7.28;;;;;;;15.15;nan;95348.47;5005143;28;20240;-80
2022/05/13 01:50:23;;;;;;;7.93;7.22;;;;;;;15.24;nan;95343.75;5005698;28;20203;-80
2022/05/13 01:52:50;;;;;;;8.45;6.65;;;;;;;15.34;nan;95344.16;5006135;28;20323;-80
2022/05/13 01:55:19;;;;;;;8.80;7.43;;;;;;;15.34;nan;95359.53;5004431;28;20637;-80
2022/05/13 01:57:46;;;;;;;7.40;6.50;;;;;;;15.32;nan;95348.53;5004825;28;20634;-81
2022/05/13 02:00:14;;;;;;;7.57;6.85;;;;;;;15.40;nan;95354.09;5004791;28;20211;-79
2022/05/13 02:05:21;;;;;;;9.60;7.40;;;;;;;15.37;nan;95351.69;5006298;28;20196;-81
2022/05/13 02:07:49;;;;;;;9.65;7.13;;;;;;;15.37;nan;95346.56;5004771;28;20250;-80
2022/05/13 02:10:15;;;;;;;8.00;7.20;;;;;;;15.50;nan;95355.31;5004831;28;21865;-80
2022/05/13 02:12:44;;;;;;;9.40;8.00;;;;;;;15.40;nan;95361.78;5006116;28;20974;-80
2022/05/13 02:15:12;;;;;;;11.15;7.15;;;;;;;15.36;nan;95362.00;5004288;28;20196;-80
2022/05/13 02:17:39;;;;;;;8.52;7.15;;;;;;;15.45;nan;95362.41;5006462;28;20395;-80
2022/05/13 02:20:08;;;;;;;8.55;7.00;;;;;;;15.43;nan;95361.63;5004254;28;21068;-79
2022/05/13 02:22:35;;;;;;;9.00;8.15;;;;;;;15.24;nan;95360.84;5004046;28;20287;-80
2022/05/13 02:25:03;;;;;;;10.88;7.45;;;;;;;14.97;nan;95361.22;5005269;28;20659;-79
2022/05/13 02:27:29;;;;;;;12.77;8.63;;;;;;;15.06;nan;95371.97;5006714;28;20227;-80
2022/05/13 02:29:58;;;;;;;9.25;7.65;;;;;;;15.04;nan;95369.47;5004818;28;20488;-80
2022/05/13 02:32:25;;;;;;;10.88;8.07;;;;;;;15.21;nan;95374.63;5009712;28;20211;-82
2022/05/13 02:34:52;;;;;;;9.13;6.82;;;;;;;14.68;nan;95356.59;5010191;28;20572;-80
2022/05/13 02:37:19;;;;;;;11.40;7.45;;;;;;;14.50;nan;95368.47;5006979;28;20211;-80
2022/05/13 02:39:46;;;;;;;7.20;6.70;;;;;;;14.34;nan;95375.16;5008531;28;20210;-80
2022/05/13 02:42:14;;;;;;;10.07;6.88;;;;;;;14.16;nan;95366.50;5010374;28;20207;-79
2022/05/13 02:44:41;;;;;;;12.25;7.00;;;;;;;14.02;nan;95379.06;5005878;28;20602;-80
2022/05/13 02:47:10;;;;;;;7.85;7.15;;;;;;;13.88;nan;95373.69;5007004;28;20223;-79
2022/05/13 02:49:37;;;;;;;7.57;5.82;;;;;;;13.82;nan;95366.28;5004854;28;20204;-80
2022/05/13 02:52:04;;;;;;;6.95;6.25;;;;;;;13.76;nan;95367.38;5009096;28;20203;-80
2022/05/13 02:54:34;;;;;;;9.35;7.15;;;;;;;13.89;nan;95378.72;5008038;28;20655;-80
2022/05/13 02:57:01;;;;;;;12.88;6.88;;;;;;;14.15;nan;95382.75;5007307;28;20211;-79
2022/05/13 02:59:28;;;;;;;8.88;6.63;;;;;;;14.28;nan;95365.19;5009192;28;20568;-80
2022/05/13 03:01:55;;;;;;;7.88;7.15;;;;;;;14.11;nan;95368.44;5008236;28;20207;-79
2022/05/13 03:04:24;;;;;;;8.77;7.13;;;;;;;14.28;nan;95373.69;5010363;28;20215;-79
2022/05/13 03:06:53;;;;;;;8.18;7.38;;;;;;;14.55;nan;95383.63;5007919;28;20310;-80
2022/05/13 03:09:20;;;;;;;15.48;7.65;;;;;;;14.26;nan;95375.47;5011929;28;20286;-80
2022/05/13 03:11:47;;;;;;;10.70;7.22;;;;;;;14.39;nan;95351.91;5008210;28;20218;-80
2022/05/13 03:14:14;;;;;;;8.27;7.53;;;;;;;14.56;nan;95364.84;5009358;28;20211;-80
2022/05/13 03:16:40;;;;;;;9.48;7.13;;;;;;;14.67;nan;95380.53;5006810;28;20284;-80
2022/05/13 03:19:07;;;;;;;8.63;7.93;;;;;;;14.71;nan;95374.38;5007823;28;20658;-81
2022/05/13 03:21:36;;;;;;;9.00;8.20;;;;;;;14.68;nan;95384.75;5010043;28;20625;-80
2022/05/13 03:24:03;;;;;;;7.22;6.53;;;;;;;14.90;nan;95393.09;5011373;28;20202;-80
2022/05/13 03:26:30;;;;;;;7.65;6.82;;;;;;;14.88;nan;95368.47;5012620;28;20199;-80
2022/05/13 03:28:57;;;;;;;11.35;6.88;;;;;;;15.07;nan;95376.19;5011492;28;20241;-80
2022/05/13 03:31:24;;;;;;;7.85;7.13;;;;;;;15.00;nan;95385.03;5008946;28;20801;-81
2022/05/13 03:33:50;;;;;;;15.13;7.07;;;;;;;15.09;nan;95384.63;5009631;28;20211;-80
2022/05/13 03:36:19;;;;;;;8.80;7.60;;;;;;;15.11;nan;95375.94;5008862;28;20298;-80
2022/05/13 03:38:48;;;;;;;13.93;7.32;;;;;;;15.24;nan;95394.97;5006236;28;20722;-80
2022/05/13 03:41:15;;;;;;;11.27;8.82;;;;;;;14.89;nan;95350.50;5009169;28;20214;-80
2022/05/13 03:43:41;;;;;;;10.60;9.07;;;;;;;15.08;nan;95385.53;5009437;28;20210;-79
2022/05/13 03:46:08;;;;;;;18.23;10.30;;;;;;;15.04;nan;95396.78;5007788;28;20213;-80
2022/05/13 03:48:35;;;;;;;14.40;11.68;;;;;;;15.09;nan;95402.53;5007452;28;20231;-81
2022/05/13 03:51:02;;;;;;;14.27;8.75;;;;;;;15.20;nan;95405.41;5007410;28;20215;-81
2022/05/13 03:53:29;;;;;;;16.52;8.77;;;;;;;15.69;nan;95421.06;5008958;28;20588;-80
2022/05/13 03:55:58;;;;;;;14.27;9.18;;;;;;;16.05;nan;95413.34;5009242;28;20672;-80
2022/05/13 03:58:24;;;;;;;10.82;8.82;;;;;;;16.40;nan;95409.84;5009438;28;20242;-80
2022/05/13 04:00:52;;;;;;;15.80;8.82;;;;;;;16.70;nan;95414.34;5006610;28;20349;-80
2022/05/13 04:03:20;;;;;;;10.35;8.65;;;;;;;16.80;nan;95398.38;5009698;28;20196;-80
2022/05/13 04:11:18;;;;;;;27.55;15.23;;;;;;;17.38;nan;95420.09;5005681;28;20638;-79
2022/05/13 04:16:29;;;;;;;13.95;9.77;;;;;;;17.27;nan;95428.41;5006752;28;20215;-79
2022/05/13 04:18:58;;;;;;;15.10;10.25;;;;;;;17.43;nan;95428.41;5013683;28;20227;-79
2022/05/13 04:21:28;;;;;;;11.35;8.52;;;;;;;17.55;nan;95417.47;5018065;28;20238;-79
2022/05/13 04:23:58;;;;;;;10.43;8.32;;;;;;;17.69;nan;95432.97;5009867;28;20686;-79
2022/05/13 04:26:28;;;;;;;9.73;7.95;;;;;;;17.89;nan;95427.53;5008188;28;20211;-79
2022/05/13 04:28:56;;;;;;;61.85;34.10;;;;;;;17.25;nan;95413.06;5007621;28;20238;-79
2022/05/13 04:31:25;;;;;;;26.35;14.85;;;;;;;17.15;nan;95431.63;5008014;28;22171;-80
2022/05/13 04:33:53;;;;;;;13.82;9.23;;;;;;;17.04;nan;95427.06;5007677;28;20318;-79
2022/05/13 04:36:21;;;;;;;14.93;8.00;;;;;;;17.08;nan;95423.41;5008979;28;20199;-79
2022/05/13 04:38:48;;;;;;;15.27;7.32;;;;;;;17.84;nan;95433.84;5009382;28;20237;-78
2022/05/13 04:44:02;;;;;;;6.90;6.22;;;;;;;18.43;nan;95440.72;5007153;28;20230;-79
2022/05/13 04:46:31;;;;;;;12.52;9.82;;;;;;;18.30;nan;95430.34;5008019;28;20207;-79
2022/05/13 04:48:58;;;;;;;47.60;29.25;;;;;;;18.31;nan;95434.53;5006872;28;20282;-79
2022/05/13 04:51:25;;;;;;;11.40;10.07;;;;;;;18.45;nan;95432.91;5006254;28;20208;-80
2022/05/13 04:53:54;;;;;;;12.75;6.53;;;;;;;18.83;nan;95439.22;5007680;28;20207;-80
2022/05/13 04:56:23;;;;;;;9.13;6.25;;;;;;;19.31;nan;95437.97;5006100;28;20207;-80
2022/05/13 04:58:50;;;;;;;8.80;6.95;;;;;;;19.69;nan;95445.13;5007299;28;20211;-81
2022/05/13 05:01:20;;;;;;;8.10;6.85;;;;;;;19.90;nan;95445.50;5006396;28;20259;-78
2022/05/13 05:03:47;;;;;;;11.32;6.22;;;;;;;20.13;nan;95426.78;5007121;28;21816;-78
2022/05/13 05:06:15;;;;;;;6.53;6.03;;;;;;;20.44;nan;95424.78;5005760;28;20207;-77
2022/05/13 05:08:42;;;;;;;8.38;6.18;;;;;;;20.86;nan;95437.38;5005728;28;20239;-81
2022/05/13 05:11:11;;;;;;;12.88;6.47;;;;;;;21.53;nan;95437.91;5006421;28;20199;-80
2022/05/13 05:13:40;;;;;;;5.93;5.35;;;;;;;22.82;nan;95435.38;5006659;28;20201;-81
2022/05/13 05:16:08;;;;;;;8.35;6.72;;;;;;;25.08;nan;95431.81;5022870;28;20218;-79
2022/05/13 05:18:38;;;;;;;9.30;7.13;;;;;;;26.70;nan;95420.94;5031910;28;20223;-78
2022/05/13 05:21:06;;;;;;;8.20;6.55;;;;;;;27.96;nan;95434.28;5018769;28;20200;-79
2022/05/13 05:23:35;;;;;;;6.75;6.20;;;;;;;29.15;nan;95416.41;5012336;28;20203;-79
2022/05/13 05:26:02;;;;;;;6.63;6.03;;;;;;;30.74;nan;95430.19;5012031;28;20215;-80
2022/05/13 05:28:29;;;;;;;6.78;6.22;;;;;;;32.08;nan;95425.81;5012224;28;20239;-79
2022/05/13 05:31:01;;;;;;;7.32;6.40;;;;;;;32.06;nan;95415.44;5011775;28;20208;-80
2022/05/13 05:33:28;;;;;;;8.35;6.05;;;;;;;32.38;nan;95422.31;5013049;28;20292;-80
2022/05/13 05:35:57;;;;;;;8.77;5.75;;;;;;;33.35;nan;95430.31;5011944;28;20581;-79
2022/05/13 05:38:24;;;;;;;8.32;6.97;;;;;;;34.39;nan;95429.94;5012389;28;20755;-79
2022/05/13 05:40:51;;;;;;;14.32;10.75;;;;;;;34.69;nan;95413.91;5012284;28;20220;-80
2022/05/13 05:43:19;;;;;;;9.68;6.85;;;;;;;35.82;nan;95416.25;5011624;28;20279;-81
2022/05/13 05:45:46;;;;;;;7.75;6.93;;;;;;;35.54;nan;95428.72;5011899;28;20197;-80
2022/05/13 05:48:21;;;;;;;31.80;15.98;;;;;;;36.20;nan;95423.66;5012174;28;20193;-80
2022/05/13 05:50:49;;;;;;;8.05;7.28;;;;;;;34.70;nan;95421.63;5011991;28;20278;-81
2022/05/13 05:57:13;;;;;;;34.10;16.08;;;;;;;35.29;nan;95420.47;5011882;28;20224;-81
2022/05/13 05:58:52;;;;;;;13.38;7.63;;;;;;;32.84;nan;95427.53;5011940;28;20200;-80
2022/05/13 06:01:19;;;;;;;10.10;6.88;;;;;;;33.22;nan;95411.66;5026098;28;20676;-80
2022/05/13 06:03:46;;;;;;;16.95;8.98;;;;;;;33.30;nan;95416.88;5031492;28;20702;-80
2022/05/13 06:06:13;;;;;;;8.25;7.45;;;;;;;32.89;nan;95406.75;5016727;28;20653;-80
2022/05/13 06:08:42;;;;;;;11.77;6.47;;;;;;;32.45;nan;95410.06;5012015;28;20230;-80
2022/05/13 06:11:09;;;;;;;11.20;6.05;;;;;;;32.18;nan;95405.34;5011689;28;20266;-80
2022/05/13 06:13:36;;;;;;;12.57;7.82;;;;;;;32.80;nan;95402.56;5011558;28;20196;-80
2022/05/13 06:16:04;;;;;;;7.82;6.85;;;;;;;33.56;nan;95409.31;5023800;28;20200;-80
2022/05/13 06:18:31;;;;;;;7.10;6.50;;;;;;;33.60;nan;95400.03;5030906;28;20236;-79
2022/05/13 06:20:58;;;;;;;7.47;6.82;;;;;;;31.40;nan;95395.78;5018441;28;20261;-79
2022/05/13 06:23:25;;;;;;;8.85;6.28;;;;;;;32.90;nan;95397.06;5011449;28;20266;-79
2022/05/13 06:25:53;;;;;;;7.90;6.93;;;;;;;32.50;nan;95392.94;5011424;28;20740;-80
2022/05/13 06:28:20;;;;;;;8.45;6.32;;;;;;;32.63;nan;95394.00;5011158;28;20220;-79
2022/05/13 06:30:47;;;;;;;8.48;6.65;;;;;;;31.65;nan;95388.59;5011287;28;20208;-79
2022/05/13 06:33:14;;;;;;;8.27;7.43;;;;;;;31.74;nan;95382.31;5010814;28;20205;-79
2022/05/13 06:35:43;;;;;;;8.43;7.00;;;;;;;32.42;nan;95394.66;5011134;28;20227;-78
2022/05/13 06:38:20;;;;;;;8.90;6.70;;;;;;;32.40;nan;95391.41;5011361;28;20262;-80
2022/05/13 06:40:47;;;;;;;29.17;8.75;;;;;;;32.34;nan;95397.38;5010702;28;20632;-80
2022/05/13 06:43:16;;;;;;;10.45;6.75;;;;;;;32.47;nan;95389.69;5011009;28;20644;-80
2022/05/13 06:45:43;;;;;;;11.88;7.38;;;;;;;32.14;nan;95393.56;5020133;28;20203;-78
2022/05/13 06:48:11;;;;;;;12.93;7.53;;;;;;;31.40;nan;95392.31;5030629;28;20199;-78
2022/05/13 06:50:39;;;;;;;9.00;8.23;;;;;;;29.70;nan;95373.06;5019639;28;20294;-80
2022/05/13 06:53:06;;;;;;;16.25;8.05;;;;;;;30.32;nan;95386.59;5011276;28;20239;-81
2022/05/13 06:55:34;;;;;;;18.58;8.18;;;;;;;30.33;nan;95390.88;5010752;28;20664;-80
2022/05/13 06:58:01;;;;;;;9.90;7.70;;;;;;;30.14;nan;95375.47;5011075;28;20188;-80
2022/05/13 07:00:30;;;;;;;8.25;7.30;;;;;;;30.37;nan;95384.31;5017773;28;20211;-81
2022/05/13 07:02:57;;;;;;;10.40;7.55;;;;;;;30.32;nan;95372.69;5030760;28;20734;-81
2022/05/13 07:05:24;;;;;;;17.13;8.27;;;;;;;29.86;nan;95353.13;5030085;28;20265;-80
2022/05/13 07:07:51;;;;;;;13.73;6.88;;;;;;;29.30;nan;95379.00;5030815;28;20282;-80
2022/05/13 07:10:18;;;;;;;12.90;6.25;;;;;;;29.76;nan;95380.31;5029320;28;20231;-80
2022/05/13 07:12:45;;;;;;;14.20;6.75;;;;;;;28.87;nan;95374.72;5030311;28;20231;-79
2022/05/13 07:15:15;;;;;;;9.68;6.00;;;;;;;28.28;nan;95378.88;5024315;28;20207;-80
2022/05/13 07:17:44;;;;;;;9.10;7.18;;;;;;;28.67;nan;95370.66;5011918;28;20228;-81
2022/05/13 07:20:12;;;;;;;11.02;8.02;;;;;;;28.53;nan;95371.22;5024704;28;20210;-79
2022/05/13 07:22:39;;;;;;;29.17;11.88;;;;;;;28.46;nan;95375.44;5029040;28;20211;-80
2022/05/13 07:25:08;;;;;;;11.30;7.22;;;;;;;27.87;nan;95369.03;5010838;28;20208;-81
2022/05/13 07:27:36;;;;;;;30.85;15.40;;;;;;;27.95;nan;95371.75;5010598;28;20196;-81
2022/05/13 07:30:04;;;;;;;17.05;8.27;;;;;;;28.05;nan;95364.63;5014633;28;20277;-82
2022/05/13 07:32:31;;;;;;;13.73;7.72;;;;;;;28.14;nan;95365.53;5031049;28;20200;-81
2022/05/13 07:34:59;;;;;;;7.05;5.85;;;;;;;28.05;nan;95372.47;5026150;28;20691;-80
2022/05/13 07:37:26;;;;;;;10.48;6.30;;;;;;;27.86;nan;95362.19;5011402;28;20664;-79
2022/05/13 07:42:38;;;;;;;8.80;5.97;;;;;;;26.94;nan;95359.66;5011148;28;20203;-81
2022/05/13 07:45:06;;;;;;;17.80;10.10;;;;;;;27.29;nan;95345.91;5010460;28;20546;-81
2022/05/13 07:47:33;;;;;;;16.52;10.68;;;;;;;27.63;nan;95352.16;5010901;28;20266;-81
2022/05/13 07:50:02;;;;;;;11.57;6.88;;;;;;;27.58;nan;95359.63;5010420;28;20235;-82
2022/05/13 07:52:29;;;;;;;16.05;6.22;;;;;;;27.75;nan;95345.75;5010797;28;20196;-81
2022/05/13 07:54:56;;;;;;;11.57;6.88;;;;;;;28.07;nan;95347.00;5014205;28;20256;-84
2022/05/13 07:57:23;;;;;;;10.60;5.78;;;;;;;27.97;nan;95335.81;5014345;28;20231;-81
2022/05/13 08:02:34;;;;;;;5.88;5.30;;;;;;;27.35;nan;95337.50;5014109;28;20203;-82
2022/05/13 08:05:03;;;;;;;8.82;5.95;;;;;;;27.40;nan;95335.25;5017629;28;20199;-81
2022/05/13 08:07:30;;;;;;;12.68;7.03;;;;;;;27.28;nan;95333.81;5033977;28;20196;-80
2022/05/13 08:09:57;;;;;;;24.23;17.75;;;;;;;27.45;nan;95322.59;5029252;28;20235;-80
2022/05/13 08:12:24;;;;;;;11.43;6.97;;;;;;;27.62;nan;95324.41;5014160;28;20200;-80
2022/05/13 08:14:50;;;;;;;6.57;5.80;;;;;;;27.41;nan;95335.13;5014263;28;20204;-79
2022/05/13 08:17:17;;;;;;;6.75;6.05;;;;;;;27.17;nan;95337.47;5013497;28;20231;-80
2022/05/13 08:19:44;;;;;;;9.82;6.03;;;;;;;27.20;nan;95334.56;5013586;28;20224;-79
2022/05/13 08:22:13;;;;;;;12.15;5.72;;;;;;;27.27;nan;95325.16;5013978;28;20554;-79
2022/05/13 08:24:40;;;;;;;6.65;5.50;;;;;;;27.37;nan;95312.88;5013735;28;20606;-79
2022/05/13 08:27:06;;;;;;;12.93;5.15;;;;;;;27.71;nan;95320.94;5013459;28;20250;-81
2022/05/13 08:29:33;;;;;;;19.92;6.15;;;;;;;27.37;nan;95322.50;5012990;28;20271;-79
2022/05/13 08:32:00;;;;;;;9.23;4.82;;;;;;;27.34;nan;95315.78;5032750;28;20208;-79
2022/05/13 08:34:27;;;;;;;6.50;4.47;;;;;;;27.49;nan;95317.88;5032180;28;20645;-80
2022/05/13 08:36:54;;;;;;;7.85;6.20;;;;;;;27.62;nan;95319.19;5014223;28;20212;-79
2022/05/13 08:39:23;;;;;;;5.45;4.18;;;;;;;27.04;nan;95309.09;5013351;28;20258;-80
2022/05/13 08:41:59;;;;;;;9.27;5.18;;;;;;;27.42;nan;95320.28;5013539;28;20200;-81
2022/05/13 08:44:27;;;;;;;5.38;4.60;;;;;;;27.71;nan;95313.09;5012664;28;20205;-80
2022/05/13 08:46:58;;;;;;;9.60;4.80;;;;;;;27.76;nan;95300.38;5013421;28;20209;-79
2022/05/13 08:49:33;;;;;;;13.02;5.57;;;;;;;27.63;nan;95302.56;5013471;28;20743;-80
2022/05/13 08:54:54;;;;;;;4.88;4.47;;;;;;;27.72;nan;95299.03;5012130;28;20275;-79
2022/05/13 08:57:25;;;;;;;9.02;3.78;;;;;;;27.63;nan;95299.97;5013347;28;20211;-85
2022/05/13 08:59:58;;;;;;;5.13;4.60;;;;;;;27.87;nan;95290.69;5012861;28;20283;-83
2022/05/13 09:02:31;;;;;;;5.35;4.82;;;;;;;27.99;nan;95289.44;5013168;28;20242;-82
2022/05/13 09:05:03;;;;;;;7.10;4.20;;;;;;;27.88;nan;95287.91;5011689;28;20758;-80
2022/05/13 09:07:30;;;;;;;5.63;4.18;;;;;;;28.08;nan;95288.56;5012697;28;20196;-80
2022/05/13 09:10:00;;;;;;;31.88;24.63;;;;;;;27.99;nan;95274.59;5012133;28;20239;-83
2022/05/13 09:12:34;;;;;;;8.85;4.75;;;;;;;28.11;nan;95277.78;5002688;28;20208;-85
2022/05/13 09:15:07;;;;;;;4.80;4.15;;;;;;;28.05;nan;95278.41;5003721;28;20204;-81
2022/05/13 09:17:37;;;;;;;4.00;3.70;;;;;;;28.16;nan;95275.56;5005833;28;20230;-84
2022/05/13 09:20:07;;;;;;;5.32;3.90;;;;;;;28.08;nan;95270.25;5006827;28;20200;-80
2022/05/13 09:22:42;;;;;;;5.60;4.22;;;;;;;28.08;nan;95268.47;5005579;28;20233;-80
2022/05/13 09:25:21;;;;;;;6.75;4.28;;;;;;;28.07;nan;95261.59;5007398;28;20210;-80
2022/05/13 09:27:51;;;;;;;4.00;3.50;;;;;;;28.21;nan;95259.44;5006757;28;20227;-81
2022/05/13 09:30:21;;;;;;;7.95;3.70;;;;;;;28.44;nan;95264.00;5003601;28;21794;-81
2022/05/13 09:32:49;;;;;;;17.40;12.00;;;;;;;28.23;nan;95247.00;5008316;28;20263;-81
2022/05/13 09:35:29;;;;;;;4.13;3.92;;;;;;;27.96;nan;95248.81;5003624;28;20207;-80
2022/05/13 09:37:56;;;;;;;9.00;4.57;;;;;;;27.86;nan;95249.88;5007466;28;20211;-80
2022/05/13 09:40:27;;;;;;;4.22;3.92;;;;;;;27.73;nan;95243.22;5001899;28;20295;-80
2022/05/13 09:42:56;;;;;;;4.35;3.97;;;;;;;27.53;nan;95236.50;5001619;28;20792;-79
2022/05/13 09:45:27;;;;;;;7.05;4.32;;;;;;;27.70;nan;95233.13;5007370;28;20212;-81
2022/05/13 09:48:11;;;;;;;7.22;4.10;;;;;;;28.02;nan;95226.44;5005333;28;20672;-81
2022/05/13 09:50:41;;;;;;;8.70;4.70;;;;;;;28.31;nan;95236.63;5005400;28;20239;-79
2022/05/13 09:53:33;;;;;;;9.23;8.45;;;;;;;28.60;nan;95225.81;5002570;28;20575;-78
2022/05/13 09:56:05;;;;;;;6.95;5.28;;;;;;;28.74;nan;95217.34;5008746;28;20217;-82
2022/05/13 09:58:35;;;;;;;4.35;3.95;;;;;;;28.22;nan;95212.22;5006852;28;20204;-81
2022/05/13 10:01:05;;;;;;;4.25;3.95;;;;;;;28.18;nan;95192.59;5008742;28;21846;-82
2022/05/13 10:03:36;;;;;;;6.72;4.90;;;;;;;28.14;nan;95209.56;5005481;28;20200;-81
2022/05/13 10:06:19;;;;;;;6.85;4.75;;;;;;;28.07;nan;95200.69;5007303;28;20214;-80
2022/05/13 10:08:53;;;;;;;6.78;4.13;;;;;;;27.98;nan;95188.53;5006088;28;20210;-82
2022/05/13 10:14:27;;;;;;;3.70;3.40;;;;;;;28.22;nan;95191.31;5012489;28;20304;-83
2022/05/13 10:16:56;;;;;;;6.15;4.47;;;;;;;28.28;nan;95188.09;5017507;28;20634;-84
2022/05/13 10:19:30;;;;;;;26.23;17.48;;;;;;;28.29;nan;95187.13;5030231;28;20258;-80
2022/05/13 10:22:05;;;;;;;8.63;6.28;;;;;;;28.34;nan;95190.09;5032064;28;20204;-81
2022/05/13 10:24:41;;;;;;;16.08;12.13;;;;;;;28.50;nan;95178.88;5010797;28;20196;-83
2022/05/13 10:27:19;;;;;;;9.57;7.32;;;;;;;28.88;nan;95177.53;5011693;28;20207;-81
2022/05/13 10:29:50;;;;;;;5.70;5.15;;;;;;;28.86;nan;95178.69;5009996;28;20258;-82
2022/05/13 10:32:24;;;;;;;5.32;4.25;;;;;;;28.90;nan;95170.38;5009727;28;20196;-80
2022/05/13 10:34:57;;;;;;;7.80;6.85;;;;;;;28.70;nan;95159.34;5009315;28;20670;-81
2022/05/13 10:37:34;;;;;;;7.32;5.28;;;;;;;28.48;nan;95159.91;5009340;28;20239;-81
2022/05/13 10:40:04;;;;;;;4.72;4.32;;;;;;;28.49;nan;95168.56;5009528;28;20199;-82
2022/05/13 10:42:38;;;;;;;6.47;4.07;;;;;;;28.56;nan;95172.19;5020145;28;20749;-80
2022/05/13 10:45:15;;;;;;;5.93;4.63;;;;;;;28.41;nan;95157.13;5031141;28;20250;-82
2022/05/13 10:47:45;;;;;;;6.00;5.57;;;;;;;28.49;nan;95156.31;5017537;28;20258;-81
2022/05/13 10:50:18;;;;;;;4.25;3.85;;;;;;;28.77;nan;95164.72;5011263;28;20587;-84
2022/05/13 10:52:54;;;;;;;4.35;4.03;;;;;;;28.66;nan;95146.75;5010966;28;20757;-81
2022/05/13 10:55:30;;;;;;;6.63;3.60;;;;;;;28.47;nan;95146.97;5011199;28;20200;-79
2022/05/13 10:58:12;;;;;;;6.05;4.15;;;;;;;28.36;nan;95156.78;5019425;28;20296;-82
2022/05/13 11:00:46;;;;;;;5.93;5.32;;;;;;;28.66;nan;95141.50;5031148;28;20668;-83
2022/05/13 11:03:36;;;;;;;6.90;4.53;;;;;;;28.87;nan;95141.91;5018979;28;20282;-83
2022/05/13 11:06:30;;;;;;;10.52;7.35;;;;;;;28.68;nan;95144.78;5010828;28;20203;-83
2022/05/13 11:09:04;;;;;;;10.10;3.85;;;;;;;28.04;nan;95136.50;5027876;28;20230;-82
2022/05/13 11:11:39;;;;;;;10.52;4.65;;;;;;;28.04;nan;95131.28;5029872;28;20228;-83
2022/05/13 11:14:42;;;;;;;4.38;3.45;;;;;;;28.24;nan;95123.22;5010140;28;20219;-83
2022/05/13 11:17:23;;;;;;;7.85;4.07;;;;;;;28.36;nan;95106.28;4988892;28;20254;-82
2022/05/13 11:20:00;;;;;;;4.88;4.32;;;;;;;28.67;nan;95096.88;5011040;28;20298;-82
2022/05/13 11:22:34;;;;;;;7.03;3.90;;;;;;;28.48;nan;95104.19;5015478;28;20270;-82
2022/05/13 11:28:10;;;;;;;3.90;3.60;;;;;;;28.19;nan;95109.78;5021944;28;20227;-81
2022/05/13 11:30:44;;;;;;;4.07;3.63;;;;;;;27.77;nan;95095.72;5014541;28;20231;-81
2022/05/13 11:33:28;;;;;;;3.58;3.38;;;;;;;28.19;nan;95102.78;5023673;28;20570;-79
2022/05/13 11:36:12;;;;;;;6.85;5.43;;;;;;;28.54;nan;95074.78;5032830;28;20200;-80
2022/05/13 11:38:54;;;;;;;6.95;4.80;;;;;;;28.57;nan;95090.16;5017622;28;20204;-81
2022/05/13 11:41:24;;;;;;;5.32;4.15;;;;;;;28.18;nan;95084.66;5012392;28;20290;-83
2022/05/13 11:44:01;;;;;;;3.47;3.25;;;;;;;28.36;nan;95073.13;5028272;28;20204;-83
2022/05/13 11:47:00;;;;;;;4.68;3.45;;;;;;;28.22;nan;95065.88;5033012;28;20199;-81
2022/05/13 11:49:30;;;;;;;5.75;3.75;;;;;;;28.37;nan;95084.41;5009970;28;20235;-81
2022/05/13 11:52:03;;;;;;;4.00;3.67;;;;;;;28.42;nan;95076.91;5014054;28;20636;-81
2022/05/13 11:54:31;;;;;;;4.57;3.22;;;;;;;28.55;nan;95077.25;5014635;28;20223;-81
2022/05/13 11:57:23;;;;;;;4.72;4.07;;;;;;;28.36;nan;95069.69;5014366;28;20204;-82
2022/05/13 11:59:52;;;;;;;3.83;3.50;;;;;;;28.00;nan;95072.47;5014637;28;20197;-80
2022/05/13 12:02:52;;;;;;;3.58;3.28;;;;;;;27.90;nan;95066.56;5013686;28;20205;-80
2022/05/13 12:05:31;;;;;;;3.13;2.90;;;;;;;28.23;nan;95056.25;5002145;28;20196;-81
2022/05/13 12:08:19;;;;;;;5.82;5.07;;;;;;;28.72;nan;95049.31;5014085;28;20200;-80
2022/05/13 12:11:03;;;;;;;4.07;3.78;;;;;;;29.14;nan;95040.53;5013087;28;20227;-81
2022/05/13 12:13:40;;;;;;;3.47;3.17;;;;;;;28.74;nan;95023.81;5013368;28;20215;-82
2022/05/13 12:16:33;;;;;;;3.70;3.50;;;;;;;29.08;nan;95027.13;5014693;28;20308;-81
2022/05/13 12:19:26;;;;;;;12.48;7.05;;;;;;;29.37;nan;95038.84;5030401;28;20261;-83
2022/05/13 12:22:00;;;;;;;4.20;3.65;;;;;;;28.76;nan;95021.84;5033838;28;20188;-81
2022/05/13 12:24:29;;;;;;;5.15;3.63;;;;;;;28.79;nan;95005.84;5014084;28;20235;-80
2022/05/13 12:27:11;;;;;;;6.03;4.18;;;;;;;29.04;nan;95007.47;5013695;28;20203;-83
2022/05/13 12:29:57;;;;;;;4.40;3.10;;;;;;;28.98;nan;95015.16;5013420;28;20228;-84
2022/05/13 12:32:35;;;;;;;3.45;3.00;;;;;;;28.40;nan;95011.72;5013538;28;20231;-80